Aegaeo — SXYY — position and weather

sailwx.info

Track history (hours):
 
Tides and Currents Weather Stations Pressure Air Temp Water Temp Dewpoint Dewpoint Depression Visibility Wind Speed Wind Dir Waves Ship Positions

Oceanographic research ship Aegaeo (Greece)

Detailed information on ship capabilities available from University of Delaware's Ocean Information Center.

Last reported at 2019-Jun-04 23:31 UTC. Time now 2019-Jun-19 21:21 UTC.
Position N 39°55' E 025°02'.
Warning: this ship's position is 14 days out of date.

Length 61.5 m; beam 9.6 m; draft 2.9 m.

Type: Ship (hazmat cat A). MMSI: 237529000.

Date/timePositionNaut miles runAvg speedWind from/ knotsBaromVisibWave heightAir tempDewpointWater temp
2019-Jun-04 23:31N 39°55' E 025°02'0 3.0
2019-Jun-04 23:25N 39°55' E 025°02'0 0.2
2019-Jun-04 22:53N 39°55' E 025°02'0 0.2
2019-Jun-04 21:57N 39°56' E 025°03'0 0.1
2019-Jun-04 21:27N 39°56' E 025°03'8 3.8
2019-Jun-04 19:27N 40°01' E 024°56'1 1.6
2019-Jun-04 18:57N 40°02' E 024°56'1 1.1
2019-Jun-04 18:28N 40°03' E 024°56'4 5.5
2019-Jun-04 17:43N 40°07' E 024°55'1 2.3
2019-Jun-04 17:12N 40°08' E 024°55'1 2.4
2019-Jun-04 16:57N 40°09' E 024°55'0 0.3
2019-Jun-04 16:23N 40°09' E 024°55'1 1.7
2019-Jun-04 16:00N 40°09' E 024°55'2 3.6
2019-Jun-04 15:25N 40°11' E 024°56'17 5.6
2019-Jun-04 12:20N 40°28' E 024°52'0 0.8
2019-Jun-04 11:57N 40°28' E 024°52'0 0.6
2019-Jun-04 11:30N 40°29' E 024°51'2 4.8
2019-Jun-04 11:00N 40°30' E 024°49'2 4.2
2019-Jun-04 10:30N 40°31' E 024°47'0 0.0
2019-Jun-04 09:57N 40°31' E 024°47'2 4.3
2019-Jun-04 09:29N 40°33' E 024°45'0 0.1
2019-Jun-04 06:41N 40°33' E 024°45'1 3.4
2019-Jun-04 06:30N 40°33' E 024°45'2 3.4
2019-Jun-04 05:57N 40°31' E 024°47'2 3.4
2019-Jun-04 05:24N 40°30' E 024°49'2 3.3
2019-Jun-04 04:55N 40°29' E 024°50'2 3.2
2019-Jun-04 04:27N 40°28' E 024°52'5 3.1
2019-Jun-04 02:57N 40°25' E 024°56'1 3.2
2019-Jun-04 02:30N 40°23' E 024°57'2 3.2
2019-Jun-04 01:54N 40°22' E 024°58'1 3.2
2019-Jun-04 01:29N 40°20' E 024°58'1 3.1
2019-Jun-04 01:00N 40°19' E 024°59'2 3.1
2019-Jun-04 00:30N 40°17' E 024°59'3 3.1
2019-Jun-03 23:35N 40°15' E 024°58'0 3.1
2019-Jun-03 23:30N 40°14' E 024°58'2 3.2
2019-Jun-03 23:00N 40°13' E 024°57'2 3.3
2019-Jun-03 22:30N 40°11' E 024°56'2 3.1
2019-Jun-03 21:57N 40°10' E 024°55'1 3.0
2019-Jun-03 21:30N 40°08' E 024°55'2 3.0
2019-Jun-03 20:58N 40°07' E 024°55'2 2.9
2019-Jun-03 20:15N 40°05' E 024°55'1 2.8
2019-Jun-03 20:00N 40°04' E 024°55'2 3.2
2019-Jun-03 19:29N 40°02' E 024°56'3 3.2
2019-Jun-03 18:32N 39°60' E 024°57'0 3.4
2019-Jun-03 18:28N 39°59' E 024°57'3 3.2
2019-Jun-03 17:24N 39°57' E 024°60'2 1.7
2019-Jun-03 16:05N 39°56' E 025°02'10 3.0
2019-Jun-03 12:51N 40°04' E 024°56'3 3.3
2019-Jun-03 12:05N 40°06' E 024°55'7 3.1
2019-Jun-03 09:56N 40°13' E 024°57'2 3.2
2019-Jun-03 09:24N 40°14' E 024°58'5 3.2
2019-Jun-03 07:54N 40°19' E 024°59'11 3.1
2019-Jun-03 04:27N 40°28' E 024°52'2 3.2
2019-Jun-03 03:55N 40°29' E 024°50'1 3.2
2019-Jun-03 03:30N 40°30' E 024°49'4 1.3
2019-Jun-03 00:10N 40°33' E 024°45'0 3.1
2019-Jun-03 00:01N 40°33' E 024°45'2 3.1
2019-Jun-02 23:28N 40°31' E 024°46'1 3.1
2019-Jun-02 23:00N 40°30' E 024°48'2 3.1
2019-Jun-02 22:29N 40°29' E 024°50'2 3.0
2019-Jun-02 21:59N 40°28' E 024°51'2 3.1
2019-Jun-02 21:30N 40°27' E 024°53'6 3.2
2019-Jun-02 19:34N 40°22' E 024°57'1 3.2
2019-Jun-02 19:19N 40°22' E 024°58'1 3.3
2019-Jun-02 19:01N 40°21' E 024°58'2 3.1
2019-Jun-02 18:30N 40°19' E 024°58'1 2.9
2019-Jun-02 18:00N 40°18' E 024°59'1 3.0
2019-Jun-02 17:30N 40°16' E 024°58'2 3.1
2019-Jun-02 16:59N 40°15' E 024°57'2 3.1
2019-Jun-02 16:29N 40°13' E 024°57'2 3.1
2019-Jun-02 16:00N 40°12' E 024°56'2 3.1
2019-Jun-02 15:29N 40°10' E 024°55'1 3.1
2019-Jun-02 15:00N 40°09' E 024°55'2 3.1
2019-Jun-02 14:29N 40°07' E 024°54'2 3.1
2019-Jun-02 13:59N 40°06' E 024°55'1 3.1
2019-Jun-02 13:30N 40°04' E 024°55'5 0.9
2019-Jun-02 07:16N 39°59' E 024°55'7 9.9
2019-Jun-02 06:35N 40°03' E 024°48'110.0
2019-Jun-02 06:30N 40°03' E 024°48'1 1.3
2019-Jun-02 05:39N 40°04' E 024°47'1 8.6
2019-Jun-02 05:30N 40°03' E 024°46'510.4
2019-Jun-02 05:00N 39°58' E 024°44'72 1.8
2019-May-31 12:02N 38°47' E 024°29'0 3.1
2019-May-31 12:00N 38°47' E 024°29'2 3.2
2019-May-31 11:30N 38°46' E 024°27'2 3.1
2019-May-31 11:00N 38°45' E 024°26'2 3.1
2019-May-31 10:30N 38°43' E 024°25'69 4.3
2019-May-30 18:33N 37°38' E 023°57'010.6
2019-May-30 18:30N 37°39' E 023°56'510.8
2019-May-30 18:00N 37°42' E 023°51'510.6
2019-May-30 17:30N 37°45' E 023°46'510.5
2019-May-30 17:00N 37°49' E 023°42'510.4
2019-May-30 16:30N 37°54' E 023°39'3 5.3
2019-May-30 16:00N 37°56' E 023°37'0 0.0
2019-May-30 15:30N 37°56' E 023°37'0 0.0
2019-May-29 21:19N 37°56' E 023°37'1 4.0
2019-May-29 21:00N 37°55' E 023°36'510.2
2019-May-29 20:31N 37°51' E 023°32'510.5
2019-May-29 20:00N 37°48' E 023°28'510.5
2019-May-29 19:30N 37°45' E 023°22'510.4
2019-May-29 19:00N 37°41' E 023°17'3 5.0
2019-May-29 18:30N 37°39' E 023°15'2 3.3
2019-May-29 18:00N 37°41' E 023°17'2 3.7
2019-May-29 17:30N 37°42' E 023°18'510.9
2019-May-29 17:00N 37°46' E 023°23'510.9
2019-May-29 16:30N 37°49' E 023°29'510.8
2019-May-29 16:00N 37°53' E 023°34'5 9.4
2019-May-29 15:30N 37°56' E 023°37'0 0.0
2019-May-28 12:55N 37°56' E 023°37'3 6.9
2019-May-28 12:31N 37°54' E 023°35'510.6
2019-May-28 12:00N 37°50' E 023°31'510.7
2019-May-28 11:30N 37°47' E 023°25'510.7
2019-May-28 11:00N 37°44' E 023°20'4 8.4
2019-May-28 10:30N 37°41' E 023°16'0 0.6
2019-May-28 10:00N 37°41' E 023°16'0 0.6
2019-May-28 09:30N 37°41' E 023°17'1 2.6
2019-May-28 09:00N 37°42' E 023°18'510.5
2019-May-28 08:31N 37°45' E 023°23'510.5
2019-May-28 08:00N 37°48' E 023°28'510.5
2019-May-28 07:30N 37°52' E 023°33'510.4
2019-May-28 07:01N 37°56' E 023°37'0 0.7
2019-May-28 06:30N 37°56' E 023°37'  
Track history (hours):
 
Tides and Currents Weather Stations Pressure Air Temp Water Temp Dewpoint Dewpoint Depression Visibility Wind Speed Wind Dir Waves Ship Positions

Oceanographic research ship Aegaeo (Greece)

Detailed information on ship capabilities available from University of Delaware's Ocean Information Center.

Last reported at 2019-Jun-04 23:31 UTC. Time now 2019-Jun-19 21:21 UTC.
Position N 39°55' E 025°02'.
Warning: this ship's position is 14 days out of date.

Length 61.5 m; beam 9.6 m; draft 2.9 m.

Type: Ship (hazmat cat A). MMSI: 237529000.

Date/timePositionNaut miles runAvg speedWind from/ knotsBaromVisibWave heightAir tempDewpointWater temp
2019-Jun-04 23:31N 39°55' E 025°02'0 3.0
2019-Jun-04 23:25N 39°55' E 025°02'0 0.2
2019-Jun-04 22:53N 39°55' E 025°02'0 0.2
2019-Jun-04 21:57N 39°56' E 025°03'0 0.1
2019-Jun-04 21:27N 39°56' E 025°03'8 3.8
2019-Jun-04 19:27N 40°01' E 024°56'1 1.6
2019-Jun-04 18:57N 40°02' E 024°56'1 1.1
2019-Jun-04 18:28N 40°03' E 024°56'4 5.5
2019-Jun-04 17:43N 40°07' E 024°55'1 2.3
2019-Jun-04 17:12N 40°08' E 024°55'1 2.4
2019-Jun-04 16:57N 40°09' E 024°55'0 0.3
2019-Jun-04 16:23N 40°09' E 024°55'1 1.7
2019-Jun-04 16:00N 40°09' E 024°55'2 3.6
2019-Jun-04 15:25N 40°11' E 024°56'17 5.6
2019-Jun-04 12:20N 40°28' E 024°52'0 0.8
2019-Jun-04 11:57N 40°28' E 024°52'0 0.6
2019-Jun-04 11:30N 40°29' E 024°51'2 4.8
2019-Jun-04 11:00N 40°30' E 024°49'2 4.2
2019-Jun-04 10:30N 40°31' E 024°47'0 0.0
2019-Jun-04 09:57N 40°31' E 024°47'2 4.3
2019-Jun-04 09:29N 40°33' E 024°45'0 0.1
2019-Jun-04 06:41N 40°33' E 024°45'1 3.4
2019-Jun-04 06:30N 40°33' E 024°45'2 3.4
2019-Jun-04 05:57N 40°31' E 024°47'2 3.4
2019-Jun-04 05:24N 40°30' E 024°49'2 3.3
2019-Jun-04 04:55N 40°29' E 024°50'2 3.2
2019-Jun-04 04:27N 40°28' E 024°52'5 3.1
2019-Jun-04 02:57N 40°25' E 024°56'1 3.2
2019-Jun-04 02:30N 40°23' E 024°57'2 3.2
2019-Jun-04 01:54N 40°22' E 024°58'1 3.2
2019-Jun-04 01:29N 40°20' E 024°58'1 3.1
2019-Jun-04 01:00N 40°19' E 024°59'2 3.1
2019-Jun-04 00:30N 40°17' E 024°59'3 3.1
2019-Jun-03 23:35N 40°15' E 024°58'0 3.1
2019-Jun-03 23:30N 40°14' E 024°58'2 3.2
2019-Jun-03 23:00N 40°13' E 024°57'2 3.3
2019-Jun-03 22:30N 40°11' E 024°56'2 3.1
2019-Jun-03 21:57N 40°10' E 024°55'1 3.0
2019-Jun-03 21:30N 40°08' E 024°55'2 3.0
2019-Jun-03 20:58N 40°07' E 024°55'2 2.9
2019-Jun-03 20:15N 40°05' E 024°55'1 2.8
2019-Jun-03 20:00N 40°04' E 024°55'2 3.2
2019-Jun-03 19:29N 40°02' E 024°56'3 3.2
2019-Jun-03 18:32N 39°60' E 024°57'0 3.4
2019-Jun-03 18:28N 39°59' E 024°57'3 3.2
2019-Jun-03 17:24N 39°57' E 024°60'2 1.7
2019-Jun-03 16:05N 39°56' E 025°02'10 3.0
2019-Jun-03 12:51N 40°04' E 024°56'3 3.3
2019-Jun-03 12:05N 40°06' E 024°55'7 3.1
2019-Jun-03 09:56N 40°13' E 024°57'2 3.2
2019-Jun-03 09:24N 40°14' E 024°58'5 3.2
2019-Jun-03 07:54N 40°19' E 024°59'11 3.1
2019-Jun-03 04:27N 40°28' E 024°52'2 3.2
2019-Jun-03 03:55N 40°29' E 024°50'1 3.2
2019-Jun-03 03:30N 40°30' E 024°49'4 1.3
2019-Jun-03 00:10N 40°33' E 024°45'0 3.1
2019-Jun-03 00:01N 40°33' E 024°45'2 3.1
2019-Jun-02 23:28N 40°31' E 024°46'1 3.1
2019-Jun-02 23:00N 40°30' E 024°48'2 3.1
2019-Jun-02 22:29N 40°29' E 024°50'2 3.0
2019-Jun-02 21:59N 40°28' E 024°51'2 3.1
2019-Jun-02 21:30N 40°27' E 024°53'6 3.2
2019-Jun-02 19:34N 40°22' E 024°57'1 3.2
2019-Jun-02 19:19N 40°22' E 024°58'1 3.3
2019-Jun-02 19:01N 40°21' E 024°58'2 3.1
2019-Jun-02 18:30N 40°19' E 024°58'1 2.9
2019-Jun-02 18:00N 40°18' E 024°59'1 3.0
2019-Jun-02 17:30N 40°16' E 024°58'2 3.1
2019-Jun-02 16:59N 40°15' E 024°57'2 3.1
2019-Jun-02 16:29N 40°13' E 024°57'2 3.1
2019-Jun-02 16:00N 40°12' E 024°56'2 3.1
2019-Jun-02 15:29N 40°10' E 024°55'1 3.1
2019-Jun-02 15:00N 40°09' E 024°55'2 3.1
2019-Jun-02 14:29N 40°07' E 024°54'2 3.1
2019-Jun-02 13:59N 40°06' E 024°55'1 3.1
2019-Jun-02 13:30N 40°04' E 024°55'5 0.9
2019-Jun-02 07:16N 39°59' E 024°55'7 9.9
2019-Jun-02 06:35N 40°03' E 024°48'110.0
2019-Jun-02 06:30N 40°03' E 024°48'1 1.3
2019-Jun-02 05:39N 40°04' E 024°47'1 8.6
2019-Jun-02 05:30N 40°03' E 024°46'510.4
2019-Jun-02 05:00N 39°58' E 024°44'72 1.8
2019-May-31 12:02N 38°47' E 024°29'0 3.1
2019-May-31 12:00N 38°47' E 024°29'2 3.2
2019-May-31 11:30N 38°46' E 024°27'2 3.1
2019-May-31 11:00N 38°45' E 024°26'2 3.1
2019-May-31 10:30N 38°43' E 024°25'69 4.3
2019-May-30 18:33N 37°38' E 023°57'010.6
2019-May-30 18:30N 37°39' E 023°56'510.8
2019-May-30 18:00N 37°42' E 023°51'510.6
2019-May-30 17:30N 37°45' E 023°46'510.5
2019-May-30 17:00N 37°49' E 023°42'510.4
2019-May-30 16:30N 37°54' E 023°39'3 5.3
2019-May-30 16:00N 37°56' E 023°37'0 0.0
2019-May-30 15:30N 37°56' E 023°37'0 0.0
2019-May-29 21:19N 37°56' E 023°37'1 4.0
2019-May-29 21:00N 37°55' E 023°36'510.2
2019-May-29 20:31N 37°51' E 023°32'510.5
2019-May-29 20:00N 37°48' E 023°28'510.5
2019-May-29 19:30N 37°45' E 023°22'510.4
2019-May-29 19:00N 37°41' E 023°17'3 5.0
2019-May-29 18:30N 37°39' E 023°15'2 3.3
2019-May-29 18:00N 37°41' E 023°17'2 3.7
2019-May-29 17:30N 37°42' E 023°18'510.9
2019-May-29 17:00N 37°46' E 023°23'510.9
2019-May-29 16:30N 37°49' E 023°29'510.8
2019-May-29 16:00N 37°53' E 023°34'5 9.4
2019-May-29 15:30N 37°56' E 023°37'0 0.0
2019-May-28 12:55N 37°56' E 023°37'3 6.9
2019-May-28 12:31N 37°54' E 023°35'510.6
2019-May-28 12:00N 37°50' E 023°31'510.7
2019-May-28 11:30N 37°47' E 023°25'510.7
2019-May-28 11:00N 37°44' E 023°20'4 8.4
2019-May-28 10:30N 37°41' E 023°16'0 0.6
2019-May-28 10:00N 37°41' E 023°16'0 0.6
2019-May-28 09:30N 37°41' E 023°17'1 2.6
2019-May-28 09:00N 37°42' E 023°18'510.5
2019-May-28 08:31N 37°45' E 023°23'510.5
2019-May-28 08:00N 37°48' E 023°28'510.5
2019-May-28 07:30N 37°52' E 023°33'510.4
2019-May-28 07:01N 37°56' E 023°37'0 0.7
2019-May-28 06:30N 37°56' E 023°37'  

Dump ship's entire track history